sensor_id;sensor_type;location;lat;lon;timestamp;P1;durP1;ratioP1;P2;durP2;ratioP2
16766;SDS011;8501;49.926;8.404;2023-08-01T00:01:03;8.95;;;5.20;;
16766;SDS011;8501;49.926;8.404;2023-08-01T00:03:28;9.57;;;4.90;;
16766;SDS011;8501;49.926;8.404;2023-08-01T00:05:54;8.05;;;4.78;;
16766;SDS011;8501;49.926;8.404;2023-08-01T00:08:20;7.55;;;4.70;;
16766;SDS011;8501;49.926;8.404;2023-08-01T00:10:46;7.78;;;5.05;;
16766;SDS011;8501;49.926;8.404;2023-08-01T00:13:11;7.97;;;4.85;;
16766;SDS011;8501;49.926;8.404;2023-08-01T00:15:37;9.77;;;5.28;;
16766;SDS011;8501;49.926;8.404;2023-08-01T00:18:02;7.55;;;4.82;;
16766;SDS011;8501;49.926;8.404;2023-08-01T00:20:28;8.80;;;5.03;;
16766;SDS011;8501;49.926;8.404;2023-08-01T00:22:54;8.98;;;4.63;;
16766;SDS011;8501;49.926;8.404;2023-08-01T00:25:19;7.78;;;4.63;;
16766;SDS011;8501;49.926;8.404;2023-08-01T00:27:45;8.30;;;4.80;;
16766;SDS011;8501;49.926;8.404;2023-08-01T00:30:11;8.13;;;4.70;;
16766;SDS011;8501;49.926;8.404;2023-08-01T00:32:36;9.90;;;4.80;;
16766;SDS011;8501;49.926;8.404;2023-08-01T00:35:02;7.05;;;4.38;;
16766;SDS011;8501;49.926;8.404;2023-08-01T00:37:28;10.15;;;4.38;;
16766;SDS011;8501;49.926;8.404;2023-08-01T00:39:53;6.55;;;4.25;;
16766;SDS011;8501;49.926;8.404;2023-08-01T00:42:19;8.55;;;4.80;;
16766;SDS011;8501;49.926;8.404;2023-08-01T00:44:44;7.90;;;4.68;;
16766;SDS011;8501;49.926;8.404;2023-08-01T00:47:12;8.27;;;4.38;;
16766;SDS011;8501;49.926;8.404;2023-08-01T00:49:39;9.52;;;4.78;;
16766;SDS011;8501;49.926;8.404;2023-08-01T00:52:04;8.20;;;4.43;;
16766;SDS011;8501;49.926;8.404;2023-08-01T00:54:31;11.57;;;4.38;;
16766;SDS011;8501;49.926;8.404;2023-08-01T00:57:01;8.20;;;4.70;;
16766;SDS011;8501;49.926;8.404;2023-08-01T00:59:28;8.35;;;4.75;;
16766;SDS011;8501;49.926;8.404;2023-08-01T01:01:54;8.13;;;4.90;;
16766;SDS011;8501;49.926;8.404;2023-08-01T01:04:19;9.57;;;4.68;;
16766;SDS011;8501;49.926;8.404;2023-08-01T01:06:47;8.35;;;4.55;;
16766;SDS011;8501;49.926;8.404;2023-08-01T01:09:28;8.07;;;4.72;;
16766;SDS011;8501;49.926;8.404;2023-08-01T01:11:56;8.73;;;4.60;;
16766;SDS011;8501;49.926;8.404;2023-08-01T01:14:22;9.15;;;4.53;;
16766;SDS011;8501;49.926;8.404;2023-08-01T01:16:48;7.25;;;4.65;;
16766;SDS011;8501;49.926;8.404;2023-08-01T01:19:13;7.70;;;4.70;;
16766;SDS011;8501;49.926;8.404;2023-08-01T01:21:39;8.80;;;4.85;;
16766;SDS011;8501;49.926;8.404;2023-08-01T01:24:07;8.60;;;4.60;;
16766;SDS011;8501;49.926;8.404;2023-08-01T01:26:34;9.77;;;5.07;;
16766;SDS011;8501;49.926;8.404;2023-08-01T01:29:01;9.63;;;4.55;;
16766;SDS011;8501;49.926;8.404;2023-08-01T01:31:28;6.82;;;4.45;;
16766;SDS011;8501;49.926;8.404;2023-08-01T01:33:54;12.18;;;4.90;;
16766;SDS011;8501;49.926;8.404;2023-08-01T01:36:20;7.80;;;4.78;;
16766;SDS011;8501;49.926;8.404;2023-08-01T01:38:46;7.00;;;4.75;;
16766;SDS011;8501;49.926;8.404;2023-08-01T01:41:11;8.18;;;4.68;;
16766;SDS011;8501;49.926;8.404;2023-08-01T01:43:37;7.68;;;4.63;;
16766;SDS011;8501;49.926;8.404;2023-08-01T01:46:03;8.43;;;4.88;;
16766;SDS011;8501;49.926;8.404;2023-08-01T01:48:28;10.05;;;5.05;;
16766;SDS011;8501;49.926;8.404;2023-08-01T01:50:54;9.35;;;4.78;;
16766;SDS011;8501;49.926;8.404;2023-08-01T01:53:19;7.55;;;4.75;;
16766;SDS011;8501;49.926;8.404;2023-08-01T01:55:45;8.75;;;4.47;;
16766;SDS011;8501;49.926;8.404;2023-08-01T01:58:10;7.45;;;4.80;;
16766;SDS011;8501;49.926;8.404;2023-08-01T02:00:36;8.48;;;4.80;;
16766;SDS011;8501;49.926;8.404;2023-08-01T02:03:01;9.75;;;4.47;;
16766;SDS011;8501;49.926;8.404;2023-08-01T02:05:28;7.90;;;4.75;;
16766;SDS011;8501;49.926;8.404;2023-08-01T02:07:54;7.47;;;4.90;;
16766;SDS011;8501;49.926;8.404;2023-08-01T02:10:20;8.13;;;4.38;;
16766;SDS011;8501;49.926;8.404;2023-08-01T02:12:45;9.75;;;4.43;;
16766;SDS011;8501;49.926;8.404;2023-08-01T02:15:10;6.88;;;4.38;;
16766;SDS011;8501;49.926;8.404;2023-08-01T02:17:36;8.10;;;4.40;;
16766;SDS011;8501;49.926;8.404;2023-08-01T02:20:02;6.80;;;4.30;;
16766;SDS011;8501;49.926;8.404;2023-08-01T02:22:27;7.95;;;4.35;;
16766;SDS011;8501;49.926;8.404;2023-08-01T02:24:53;7.53;;;4.82;;
16766;SDS011;8501;49.926;8.404;2023-08-01T02:27:18;6.97;;;4.63;;
16766;SDS011;8501;49.926;8.404;2023-08-01T02:29:44;8.13;;;4.40;;
16766;SDS011;8501;49.926;8.404;2023-08-01T02:32:09;6.53;;;4.68;;
16766;SDS011;8501;49.926;8.404;2023-08-01T02:34:35;9.60;;;4.70;;
16766;SDS011;8501;49.926;8.404;2023-08-01T02:37:01;7.82;;;4.93;;
16766;SDS011;8501;49.926;8.404;2023-08-01T02:39:26;6.35;;;4.10;;
16766;SDS011;8501;49.926;8.404;2023-08-01T02:41:52;7.60;;;4.60;;
16766;SDS011;8501;49.926;8.404;2023-08-01T02:44:17;6.40;;;4.50;;
16766;SDS011;8501;49.926;8.404;2023-08-01T02:46:43;7.65;;;4.50;;
16766;SDS011;8501;49.926;8.404;2023-08-01T02:49:08;7.00;;;4.65;;
16766;SDS011;8501;49.926;8.404;2023-08-01T02:51:34;8.10;;;4.13;;
16766;SDS011;8501;49.926;8.404;2023-08-01T02:53:59;7.05;;;4.20;;
16766;SDS011;8501;49.926;8.404;2023-08-01T02:56:25;7.18;;;4.07;;
16766;SDS011;8501;49.926;8.404;2023-08-01T02:58:52;6.88;;;3.97;;
16766;SDS011;8501;49.926;8.404;2023-08-01T03:01:20;7.20;;;4.10;;
16766;SDS011;8501;49.926;8.404;2023-08-01T03:03:45;6.35;;;3.90;;
16766;SDS011;8501;49.926;8.404;2023-08-01T03:06:11;7.13;;;4.10;;
16766;SDS011;8501;49.926;8.404;2023-08-01T03:08:37;7.57;;;3.97;;
16766;SDS011;8501;49.926;8.404;2023-08-01T03:11:03;7.03;;;3.67;;
16766;SDS011;8501;49.926;8.404;2023-08-01T03:13:29;6.20;;;3.90;;
16766;SDS011;8501;49.926;8.404;2023-08-01T03:15:54;6.25;;;3.90;;
16766;SDS011;8501;49.926;8.404;2023-08-01T03:18:20;5.00;;;3.30;;
16766;SDS011;8501;49.926;8.404;2023-08-01T03:20:45;5.28;;;3.50;;
16766;SDS011;8501;49.926;8.404;2023-08-01T03:23:11;5.22;;;3.42;;
16766;SDS011;8501;49.926;8.404;2023-08-01T03:25:36;5.95;;;3.58;;
16766;SDS011;8501;49.926;8.404;2023-08-01T03:28:03;8.40;;;3.50;;
16766;SDS011;8501;49.926;8.404;2023-08-01T03:30:29;5.97;;;3.10;;
16766;SDS011;8501;49.926;8.404;2023-08-01T03:32:57;4.97;;;2.90;;
16766;SDS011;8501;49.926;8.404;2023-08-01T03:35:22;6.10;;;3.42;;
16766;SDS011;8501;49.926;8.404;2023-08-01T03:37:48;5.82;;;3.20;;
16766;SDS011;8501;49.926;8.404;2023-08-01T03:40:14;5.70;;;3.08;;
16766;SDS011;8501;49.926;8.404;2023-08-01T03:42:40;4.13;;;2.90;;
16766;SDS011;8501;49.926;8.404;2023-08-01T03:45:06;6.55;;;3.08;;
16766;SDS011;8501;49.926;8.404;2023-08-01T03:47:32;5.75;;;3.53;;
16766;SDS011;8501;49.926;8.404;2023-08-01T03:49:57;5.43;;;2.90;;
16766;SDS011;8501;49.926;8.404;2023-08-01T03:52:23;5.88;;;3.53;;
16766;SDS011;8501;49.926;8.404;2023-08-01T03:54:49;5.35;;;3.38;;
16766;SDS011;8501;49.926;8.404;2023-08-01T03:57:14;5.00;;;3.28;;
16766;SDS011;8501;49.926;8.404;2023-08-01T03:59:40;7.00;;;3.50;;
16766;SDS011;8501;49.926;8.404;2023-08-01T04:02:06;6.00;;;3.58;;
16766;SDS011;8501;49.926;8.404;2023-08-01T04:04:31;7.13;;;3.85;;
16766;SDS011;8501;49.926;8.404;2023-08-01T04:06:57;6.68;;;3.95;;
16766;SDS011;8501;49.926;8.404;2023-08-01T04:09:22;5.13;;;3.60;;
16766;SDS011;8501;49.926;8.404;2023-08-01T04:11:48;4.93;;;3.33;;
16766;SDS011;8501;49.926;8.404;2023-08-01T04:14:13;5.80;;;3.40;;
16766;SDS011;8501;49.926;8.404;2023-08-01T04:16:39;7.10;;;3.58;;
16766;SDS011;8501;49.926;8.404;2023-08-01T04:19:05;6.10;;;3.50;;
16766;SDS011;8501;49.926;8.404;2023-08-01T04:21:30;5.97;;;3.53;;
16766;SDS011;8501;49.926;8.404;2023-08-01T04:23:56;6.13;;;3.35;;
16766;SDS011;8501;49.926;8.404;2023-08-01T04:26:21;6.28;;;3.25;;
16766;SDS011;8501;49.926;8.404;2023-08-01T04:28:47;6.65;;;3.17;;
16766;SDS011;8501;49.926;8.404;2023-08-01T04:31:13;5.28;;;3.22;;
16766;SDS011;8501;49.926;8.404;2023-08-01T04:33:39;6.35;;;3.40;;
16766;SDS011;8501;49.926;8.404;2023-08-01T04:36:04;7.60;;;3.58;;
16766;SDS011;8501;49.926;8.404;2023-08-01T04:38:30;5.15;;;3.30;;
16766;SDS011;8501;49.926;8.404;2023-08-01T04:40:55;6.78;;;3.38;;
16766;SDS011;8501;49.926;8.404;2023-08-01T04:43:21;4.78;;;3.05;;
16766;SDS011;8501;49.926;8.404;2023-08-01T04:45:46;4.68;;;3.05;;
16766;SDS011;8501;49.926;8.404;2023-08-01T04:48:12;6.25;;;3.08;;
16766;SDS011;8501;49.926;8.404;2023-08-01T04:50:37;8.77;;;2.88;;
16766;SDS011;8501;49.926;8.404;2023-08-01T04:53:03;6.22;;;2.85;;
16766;SDS011;8501;49.926;8.404;2023-08-01T04:55:29;4.95;;;3.15;;
16766;SDS011;8501;49.926;8.404;2023-08-01T04:57:54;3.97;;;2.70;;
16766;SDS011;8501;49.926;8.404;2023-08-01T05:00:20;5.10;;;3.00;;
16766;SDS011;8501;49.926;8.404;2023-08-01T05:02:45;5.30;;;3.15;;
16766;SDS011;8501;49.926;8.404;2023-08-01T05:05:11;6.53;;;3.30;;
16766;SDS011;8501;49.926;8.404;2023-08-01T05:07:36;8.10;;;2.78;;
16766;SDS011;8501;49.926;8.404;2023-08-01T05:10:02;5.70;;;3.20;;
16766;SDS011;8501;49.926;8.404;2023-08-01T05:12:28;4.18;;;2.45;;
16766;SDS011;8501;49.926;8.404;2023-08-01T05:14:53;4.40;;;2.55;;
16766;SDS011;8501;49.926;8.404;2023-08-01T05:17:19;5.20;;;2.83;;
16766;SDS011;8501;49.926;8.404;2023-08-01T05:19:45;4.43;;;2.70;;
16766;SDS011;8501;49.926;8.404;2023-08-01T05:22:10;5.75;;;2.80;;
16766;SDS011;8501;49.926;8.404;2023-08-01T05:24:36;5.32;;;2.85;;
16766;SDS011;8501;49.926;8.404;2023-08-01T05:27:01;4.40;;;2.88;;
16766;SDS011;8501;49.926;8.404;2023-08-01T05:29:27;4.80;;;2.97;;
16766;SDS011;8501;49.926;8.404;2023-08-01T05:31:53;4.40;;;3.00;;
16766;SDS011;8501;49.926;8.404;2023-08-01T05:34:18;6.65;;;3.38;;
16766;SDS011;8501;49.926;8.404;2023-08-01T05:36:44;6.35;;;3.20;;
16766;SDS011;8501;49.926;8.404;2023-08-01T05:39:09;4.47;;;3.03;;
16766;SDS011;8501;49.926;8.404;2023-08-01T05:41:35;6.63;;;3.00;;
16766;SDS011;8501;49.926;8.404;2023-08-01T05:44:01;4.55;;;2.58;;
16766;SDS011;8501;49.926;8.404;2023-08-01T05:46:27;5.22;;;2.83;;
16766;SDS011;8501;49.926;8.404;2023-08-01T05:48:52;4.95;;;2.97;;
16766;SDS011;8501;49.926;8.404;2023-08-01T05:51:18;6.57;;;3.05;;
16766;SDS011;8501;49.926;8.404;2023-08-01T05:53:43;4.93;;;2.90;;
16766;SDS011;8501;49.926;8.404;2023-08-01T05:56:09;5.03;;;3.20;;
16766;SDS011;8501;49.926;8.404;2023-08-01T05:58:35;4.88;;;2.83;;
16766;SDS011;8501;49.926;8.404;2023-08-01T06:01:00;6.03;;;3.00;;
16766;SDS011;8501;49.926;8.404;2023-08-01T06:03:26;4.70;;;2.88;;
16766;SDS011;8501;49.926;8.404;2023-08-01T06:05:51;6.63;;;3.00;;
16766;SDS011;8501;49.926;8.404;2023-08-01T06:08:17;7.97;;;2.97;;
16766;SDS011;8501;49.926;8.404;2023-08-01T06:10:43;5.45;;;3.10;;
16766;SDS011;8501;49.926;8.404;2023-08-01T06:13:09;4.05;;;2.72;;
16766;SDS011;8501;49.926;8.404;2023-08-01T06:15:34;3.80;;;2.58;;
16766;SDS011;8501;49.926;8.404;2023-08-01T06:18:00;5.95;;;3.13;;
16766;SDS011;8501;49.926;8.404;2023-08-01T06:20:27;4.82;;;3.00;;
16766;SDS011;8501;49.926;8.404;2023-08-01T06:22:52;4.78;;;3.05;;
16766;SDS011;8501;49.926;8.404;2023-08-01T06:25:18;4.82;;;3.17;;
16766;SDS011;8501;49.926;8.404;2023-08-01T06:27:43;4.20;;;2.72;;
16766;SDS011;8501;49.926;8.404;2023-08-01T06:30:09;5.05;;;3.35;;
16766;SDS011;8501;49.926;8.404;2023-08-01T06:32:35;4.00;;;2.72;;
16766;SDS011;8501;49.926;8.404;2023-08-01T06:35:01;4.13;;;2.40;;
16766;SDS011;8501;49.926;8.404;2023-08-01T06:37:26;3.67;;;2.53;;
16766;SDS011;8501;49.926;8.404;2023-08-01T06:39:53;3.80;;;2.25;;
16766;SDS011;8501;49.926;8.404;2023-08-01T06:42:19;2.75;;;2.08;;
16766;SDS011;8501;49.926;8.404;2023-08-01T06:44:45;4.53;;;2.40;;
16766;SDS011;8501;49.926;8.404;2023-08-01T06:47:11;4.35;;;2.00;;
16766;SDS011;8501;49.926;8.404;2023-08-01T06:49:37;2.42;;;1.63;;
16766;SDS011;8501;49.926;8.404;2023-08-01T06:52:02;2.97;;;1.50;;
16766;SDS011;8501;49.926;8.404;2023-08-01T06:54:28;1.27;;;0.95;;
16766;SDS011;8501;49.926;8.404;2023-08-01T06:56:54;2.20;;;0.90;;
16766;SDS011;8501;49.926;8.404;2023-08-01T06:59:19;1.33;;;0.85;;
16766;SDS011;8501;49.926;8.404;2023-08-01T07:01:44;0.98;;;0.70;;
16766;SDS011;8501;49.926;8.404;2023-08-01T07:04:10;2.10;;;0.70;;
16766;SDS011;8501;49.926;8.404;2023-08-01T07:06:36;0.88;;;0.50;;
16766;SDS011;8501;49.926;8.404;2023-08-01T07:09:02;1.08;;;0.52;;
16766;SDS011;8501;49.926;8.404;2023-08-01T07:11:27;0.77;;;0.50;;
16766;SDS011;8501;49.926;8.404;2023-08-01T07:13:53;1.27;;;0.60;;
16766;SDS011;8501;49.926;8.404;2023-08-01T07:16:18;0.40;;;0.40;;
16766;SDS011;8501;49.926;8.404;2023-08-01T07:18:44;0.65;;;0.50;;
16766;SDS011;8501;49.926;8.404;2023-08-01T07:21:09;1.10;;;0.60;;
16766;SDS011;8501;49.926;8.404;2023-08-01T07:23:35;1.27;;;0.60;;
16766;SDS011;8501;49.926;8.404;2023-08-01T07:26:01;0.60;;;0.60;;
16766;SDS011;8501;49.926;8.404;2023-08-01T07:28:27;1.00;;;0.50;;
16766;SDS011;8501;49.926;8.404;2023-08-01T07:30:59;0.75;;;0.45;;
16766;SDS011;8501;49.926;8.404;2023-08-01T07:33:25;0.50;;;0.50;;
16766;SDS011;8501;49.926;8.404;2023-08-01T07:35:50;0.90;;;0.50;;
16766;SDS011;8501;49.926;8.404;2023-08-01T07:38:16;0.88;;;0.50;;
16766;SDS011;8501;49.926;8.404;2023-08-01T07:40:42;0.60;;;0.40;;
16766;SDS011;8501;49.926;8.404;2023-08-01T07:43:07;1.23;;;0.50;;
16766;SDS011;8501;49.926;8.404;2023-08-01T07:45:36;0.70;;;0.60;;
16766;SDS011;8501;49.926;8.404;2023-08-01T07:48:02;1.25;;;0.60;;
16766;SDS011;8501;49.926;8.404;2023-08-01T07:50:28;1.05;;;0.52;;
16766;SDS011;8501;49.926;8.404;2023-08-01T07:52:53;1.75;;;0.73;;
16766;SDS011;8501;49.926;8.404;2023-08-01T07:55:19;0.98;;;0.57;;
16766;SDS011;8501;49.926;8.404;2023-08-01T07:57:45;1.13;;;0.57;;
16766;SDS011;8501;49.926;8.404;2023-08-01T08:00:11;1.85;;;0.50;;
16766;SDS011;8501;49.926;8.404;2023-08-01T08:02:37;2.05;;;0.65;;
16766;SDS011;8501;49.926;8.404;2023-08-01T08:05:03;0.80;;;0.60;;
16766;SDS011;8501;49.926;8.404;2023-08-01T08:07:28;0.80;;;0.60;;
16766;SDS011;8501;49.926;8.404;2023-08-01T08:09:54;0.85;;;0.55;;
16766;SDS011;8501;49.926;8.404;2023-08-01T08:12:20;0.70;;;0.65;;
16766;SDS011;8501;49.926;8.404;2023-08-01T08:14:47;0.90;;;0.75;;
16766;SDS011;8501;49.926;8.404;2023-08-01T08:17:12;0.90;;;0.63;;
16766;SDS011;8501;49.926;8.404;2023-08-01T08:19:38;1.40;;;0.63;;
16766;SDS011;8501;49.926;8.404;2023-08-01T08:22:04;1.17;;;0.70;;
16766;SDS011;8501;49.926;8.404;2023-08-01T08:24:29;1.88;;;0.80;;
16766;SDS011;8501;49.926;8.404;2023-08-01T08:26:55;0.80;;;0.73;;
16766;SDS011;8501;49.926;8.404;2023-08-01T08:29:21;1.00;;;0.90;;
16766;SDS011;8501;49.926;8.404;2023-08-01T08:31:46;1.83;;;1.20;;
16766;SDS011;8501;49.926;8.404;2023-08-01T08:34:12;0.80;;;0.80;;
16766;SDS011;8501;49.926;8.404;2023-08-01T08:36:38;1.00;;;0.73;;
16766;SDS011;8501;49.926;8.404;2023-08-01T08:39:04;1.50;;;1.00;;
16766;SDS011;8501;49.926;8.404;2023-08-01T08:41:30;2.28;;;1.20;;
16766;SDS011;8501;49.926;8.404;2023-08-01T08:44:00;1.30;;;0.90;;
16766;SDS011;8501;49.926;8.404;2023-08-01T08:46:31;2.83;;;1.02;;
16766;SDS011;8501;49.926;8.404;2023-08-01T08:49:03;1.10;;;0.90;;
16766;SDS011;8501;49.926;8.404;2023-08-01T08:51:29;1.77;;;0.88;;
16766;SDS011;8501;49.926;8.404;2023-08-01T08:53:56;1.58;;;0.93;;
16766;SDS011;8501;49.926;8.404;2023-08-01T08:56:21;1.10;;;0.90;;
16766;SDS011;8501;49.926;8.404;2023-08-01T08:58:48;1.65;;;1.00;;
16766;SDS011;8501;49.926;8.404;2023-08-01T09:01:14;0.88;;;0.80;;
16766;SDS011;8501;49.926;8.404;2023-08-01T09:03:40;0.90;;;0.90;;
16766;SDS011;8501;49.926;8.404;2023-08-01T09:06:11;1.00;;;0.90;;
16766;SDS011;8501;49.926;8.404;2023-08-01T09:08:44;1.50;;;1.10;;
16766;SDS011;8501;49.926;8.404;2023-08-01T09:11:20;1.20;;;1.10;;
16766;SDS011;8501;49.926;8.404;2023-08-01T09:13:46;1.48;;;1.13;;
16766;SDS011;8501;49.926;8.404;2023-08-01T09:16:12;1.77;;;1.40;;
16766;SDS011;8501;49.926;8.404;2023-08-01T09:18:49;2.15;;;1.40;;
16766;SDS011;8501;49.926;8.404;2023-08-01T09:21:17;2.50;;;1.30;;
16766;SDS011;8501;49.926;8.404;2023-08-01T09:23:46;2.80;;;1.33;;
16766;SDS011;8501;49.926;8.404;2023-08-01T09:26:15;2.08;;;1.35;;
16766;SDS011;8501;49.926;8.404;2023-08-01T09:28:41;1.50;;;1.40;;
16766;SDS011;8501;49.926;8.404;2023-08-01T09:31:07;3.15;;;1.60;;
16766;SDS011;8501;49.926;8.404;2023-08-01T09:33:42;2.45;;;1.80;;
16766;SDS011;8501;49.926;8.404;2023-08-01T09:36:08;2.78;;;1.55;;
16766;SDS011;8501;49.926;8.404;2023-08-01T09:38:34;1.30;;;1.17;;
16766;SDS011;8501;49.926;8.404;2023-08-01T09:41:01;2.40;;;1.45;;
16766;SDS011;8501;49.926;8.404;2023-08-01T09:43:34;2.83;;;1.63;;
16766;SDS011;8501;49.926;8.404;2023-08-01T09:46:01;1.67;;;1.40;;
16766;SDS011;8501;49.926;8.404;2023-08-01T09:48:28;1.77;;;1.48;;
16766;SDS011;8501;49.926;8.404;2023-08-01T09:51:11;2.65;;;1.63;;
16766;SDS011;8501;49.926;8.404;2023-08-01T09:53:51;1.98;;;1.60;;
16766;SDS011;8501;49.926;8.404;2023-08-01T09:56:21;2.33;;;1.35;;
16766;SDS011;8501;49.926;8.404;2023-08-01T09:58:52;3.22;;;1.60;;
16766;SDS011;8501;49.926;8.404;2023-08-01T10:01:20;2.38;;;1.50;;
16766;SDS011;8501;49.926;8.404;2023-08-01T10:03:50;3.80;;;1.50;;
16766;SDS011;8501;49.926;8.404;2023-08-01T10:06:18;3.38;;;1.45;;
16766;SDS011;8501;49.926;8.404;2023-08-01T10:08:49;2.50;;;1.40;;
16766;SDS011;8501;49.926;8.404;2023-08-01T10:11:16;3.10;;;1.63;;
16766;SDS011;8501;49.926;8.404;2023-08-01T10:13:44;2.95;;;1.70;;
16766;SDS011;8501;49.926;8.404;2023-08-01T10:16:10;3.53;;;1.60;;
16766;SDS011;8501;49.926;8.404;2023-08-01T10:18:37;2.90;;;1.50;;
16766;SDS011;8501;49.926;8.404;2023-08-01T10:21:07;3.25;;;1.58;;
16766;SDS011;8501;49.926;8.404;2023-08-01T10:23:34;2.30;;;1.50;;
16766;SDS011;8501;49.926;8.404;2023-08-01T10:26:01;2.63;;;1.60;;
16766;SDS011;8501;49.926;8.404;2023-08-01T10:28:34;2.55;;;1.77;;
16766;SDS011;8501;49.926;8.404;2023-08-01T10:31:10;2.78;;;1.55;;
16766;SDS011;8501;49.926;8.404;2023-08-01T10:33:36;2.65;;;1.52;;
16766;SDS011;8501;49.926;8.404;2023-08-01T10:38:46;2.50;;;1.40;;
16766;SDS011;8501;49.926;8.404;2023-08-01T10:41:19;2.03;;;1.60;;
16766;SDS011;8501;49.926;8.404;2023-08-01T10:44:15;2.78;;;1.85;;
16766;SDS011;8501;49.926;8.404;2023-08-01T10:52:02;3.92;;;1.63;;
16766;SDS011;8501;49.926;8.404;2023-08-01T10:54:28;2.53;;;1.67;;
16766;SDS011;8501;49.926;8.404;2023-08-01T10:56:55;3.05;;;1.50;;
16766;SDS011;8501;49.926;8.404;2023-08-01T10:59:24;2.65;;;1.63;;
16766;SDS011;8501;49.926;8.404;2023-08-01T11:01:51;3.05;;;1.48;;
16766;SDS011;8501;49.926;8.404;2023-08-01T11:04:19;3.28;;;1.80;;
16766;SDS011;8501;49.926;8.404;2023-08-01T11:06:48;3.85;;;1.77;;
16766;SDS011;8501;49.926;8.404;2023-08-01T11:09:35;2.38;;;1.70;;
16766;SDS011;8501;49.926;8.404;2023-08-01T11:12:01;4.53;;;1.80;;
16766;SDS011;8501;49.926;8.404;2023-08-01T11:14:27;1.90;;;1.55;;
16766;SDS011;8501;49.926;8.404;2023-08-01T11:16:55;2.85;;;1.60;;
16766;SDS011;8501;49.926;8.404;2023-08-01T11:19:22;3.35;;;1.60;;
16766;SDS011;8501;49.926;8.404;2023-08-01T11:21:50;2.17;;;1.55;;
16766;SDS011;8501;49.926;8.404;2023-08-01T11:24:17;2.70;;;1.50;;
16766;SDS011;8501;49.926;8.404;2023-08-01T11:26:43;2.30;;;1.40;;
16766;SDS011;8501;49.926;8.404;2023-08-01T11:29:10;2.65;;;1.67;;
16766;SDS011;8501;49.926;8.404;2023-08-01T11:31:37;1.95;;;1.45;;
16766;SDS011;8501;49.926;8.404;2023-08-01T11:34:03;4.07;;;1.33;;
16766;SDS011;8501;49.926;8.404;2023-08-01T11:36:29;2.97;;;1.60;;
16766;SDS011;8501;49.926;8.404;2023-08-01T11:38:58;2.30;;;1.60;;
16766;SDS011;8501;49.926;8.404;2023-08-01T11:41:25;2.30;;;1.88;;
16766;SDS011;8501;49.926;8.404;2023-08-01T11:43:52;2.45;;;1.83;;
16766;SDS011;8501;49.926;8.404;2023-08-01T11:46:19;2.85;;;1.90;;
16766;SDS011;8501;49.926;8.404;2023-08-01T11:48:46;4.28;;;2.08;;
16766;SDS011;8501;49.926;8.404;2023-08-01T11:51:12;2.20;;;1.75;;
16766;SDS011;8501;49.926;8.404;2023-08-01T11:53:38;5.40;;;1.90;;
16766;SDS011;8501;49.926;8.404;2023-08-01T11:56:04;2.60;;;1.55;;
16766;SDS011;8501;49.926;8.404;2023-08-01T11:58:39;2.92;;;1.50;;
16766;SDS011;8501;49.926;8.404;2023-08-01T12:03:52;2.45;;;1.55;;
16766;SDS011;8501;49.926;8.404;2023-08-01T12:06:19;2.88;;;1.52;;
16766;SDS011;8501;49.926;8.404;2023-08-01T12:08:50;2.00;;;1.60;;
16766;SDS011;8501;49.926;8.404;2023-08-01T12:11:27;3.05;;;1.70;;
16766;SDS011;8501;49.926;8.404;2023-08-01T12:14:04;2.58;;;1.60;;
16766;SDS011;8501;49.926;8.404;2023-08-01T12:16:38;1.98;;;1.40;;
16766;SDS011;8501;49.926;8.404;2023-08-01T12:19:05;4.30;;;1.73;;
16766;SDS011;8501;49.926;8.404;2023-08-01T12:21:31;2.90;;;1.90;;
16766;SDS011;8501;49.926;8.404;2023-08-01T12:23:58;2.45;;;1.52;;
16766;SDS011;8501;49.926;8.404;2023-08-01T12:26:24;2.30;;;1.73;;
16766;SDS011;8501;49.926;8.404;2023-08-01T12:28:49;2.42;;;1.83;;
16766;SDS011;8501;49.926;8.404;2023-08-01T12:31:16;3.40;;;1.70;;
16766;SDS011;8501;49.926;8.404;2023-08-01T12:33:43;2.63;;;1.77;;
16766;SDS011;8501;49.926;8.404;2023-08-01T12:36:09;3.28;;;1.70;;
16766;SDS011;8501;49.926;8.404;2023-08-01T12:38:35;2.80;;;1.70;;
16766;SDS011;8501;49.926;8.404;2023-08-01T12:41:00;2.95;;;1.58;;
16766;SDS011;8501;49.926;8.404;2023-08-01T12:43:26;2.33;;;1.48;;
16766;SDS011;8501;49.926;8.404;2023-08-01T12:45:52;3.00;;;1.88;;
16766;SDS011;8501;49.926;8.404;2023-08-01T12:48:18;3.90;;;1.85;;
16766;SDS011;8501;49.926;8.404;2023-08-01T12:50:47;2.60;;;1.60;;
16766;SDS011;8501;49.926;8.404;2023-08-01T12:53:13;2.92;;;1.90;;
16766;SDS011;8501;49.926;8.404;2023-08-01T12:55:42;2.00;;;1.45;;
16766;SDS011;8501;49.926;8.404;2023-08-01T12:58:09;3.67;;;1.70;;
16766;SDS011;8501;49.926;8.404;2023-08-01T13:00:34;2.58;;;1.70;;
16766;SDS011;8501;49.926;8.404;2023-08-01T13:03:00;3.20;;;1.48;;
16766;SDS011;8501;49.926;8.404;2023-08-01T13:05:25;2.20;;;1.60;;
16766;SDS011;8501;49.926;8.404;2023-08-01T13:07:51;2.58;;;1.70;;
16766;SDS011;8501;49.926;8.404;2023-08-01T13:10:17;2.58;;;1.67;;
16766;SDS011;8501;49.926;8.404;2023-08-01T13:12:42;3.33;;;1.80;;
16766;SDS011;8501;49.926;8.404;2023-08-01T13:15:08;3.38;;;1.60;;
16766;SDS011;8501;49.926;8.404;2023-08-01T13:17:34;2.95;;;1.63;;
16766;SDS011;8501;49.926;8.404;2023-08-01T13:20:00;2.33;;;1.52;;
16766;SDS011;8501;49.926;8.404;2023-08-01T13:22:25;1.98;;;1.60;;
16766;SDS011;8501;49.926;8.404;2023-08-01T13:24:51;3.55;;;1.77;;
16766;SDS011;8501;49.926;8.404;2023-08-01T13:27:17;2.28;;;1.50;;
16766;SDS011;8501;49.926;8.404;2023-08-01T13:29:42;3.00;;;1.60;;
16766;SDS011;8501;49.926;8.404;2023-08-01T13:32:08;2.97;;;1.70;;
16766;SDS011;8501;49.926;8.404;2023-08-01T13:34:33;2.10;;;1.60;;
16766;SDS011;8501;49.926;8.404;2023-08-01T13:36:59;3.35;;;1.85;;
16766;SDS011;8501;49.926;8.404;2023-08-01T13:39:24;3.50;;;1.85;;
16766;SDS011;8501;49.926;8.404;2023-08-01T13:41:51;2.47;;;1.73;;
16766;SDS011;8501;49.926;8.404;2023-08-01T13:44:20;3.53;;;1.88;;
16766;SDS011;8501;49.926;8.404;2023-08-01T13:46:46;3.85;;;1.80;;
16766;SDS011;8501;49.926;8.404;2023-08-01T13:49:11;3.35;;;1.80;;
16766;SDS011;8501;49.926;8.404;2023-08-01T13:51:38;3.17;;;1.90;;
16766;SDS011;8501;49.926;8.404;2023-08-01T13:54:03;3.58;;;1.67;;
16766;SDS011;8501;49.926;8.404;2023-08-01T13:56:29;2.10;;;1.60;;
16766;SDS011;8501;49.926;8.404;2023-08-01T13:58:54;3.15;;;1.83;;
16766;SDS011;8501;49.926;8.404;2023-08-01T14:01:20;2.65;;;1.60;;
16766;SDS011;8501;49.926;8.404;2023-08-01T14:03:45;3.60;;;1.80;;
16766;SDS011;8501;49.926;8.404;2023-08-01T14:06:12;3.95;;;1.98;;
16766;SDS011;8501;49.926;8.404;2023-08-01T14:08:38;3.97;;;1.83;;
16766;SDS011;8501;49.926;8.404;2023-08-01T14:11:05;3.15;;;2.05;;
16766;SDS011;8501;49.926;8.404;2023-08-01T14:13:32;3.05;;;1.70;;
16766;SDS011;8501;49.926;8.404;2023-08-01T14:15:59;4.43;;;1.70;;
16766;SDS011;8501;49.926;8.404;2023-08-01T14:18:25;2.78;;;1.80;;
16766;SDS011;8501;49.926;8.404;2023-08-01T14:20:50;2.78;;;2.10;;
16766;SDS011;8501;49.926;8.404;2023-08-01T14:23:16;5.03;;;2.10;;
16766;SDS011;8501;49.926;8.404;2023-08-01T14:25:42;5.72;;;2.30;;
16766;SDS011;8501;49.926;8.404;2023-08-01T14:28:08;4.70;;;2.40;;
16766;SDS011;8501;49.926;8.404;2023-08-01T14:30:34;3.38;;;2.05;;
16766;SDS011;8501;49.926;8.404;2023-08-01T14:33:00;3.85;;;2.13;;
16766;SDS011;8501;49.926;8.404;2023-08-01T14:35:30;4.97;;;2.60;;
16766;SDS011;8501;49.926;8.404;2023-08-01T14:37:55;2.72;;;2.10;;
16766;SDS011;8501;49.926;8.404;2023-08-01T14:40:21;3.85;;;2.10;;
16766;SDS011;8501;49.926;8.404;2023-08-01T14:42:47;3.72;;;2.60;;
16766;SDS011;8501;49.926;8.404;2023-08-01T14:45:13;4.55;;;2.10;;
16766;SDS011;8501;49.926;8.404;2023-08-01T14:47:39;2.70;;;2.00;;
16766;SDS011;8501;49.926;8.404;2023-08-01T14:50:06;3.30;;;1.80;;
16766;SDS011;8501;49.926;8.404;2023-08-01T14:52:32;3.28;;;2.30;;
16766;SDS011;8501;49.926;8.404;2023-08-01T14:54:57;3.17;;;2.33;;
16766;SDS011;8501;49.926;8.404;2023-08-01T14:57:23;4.68;;;2.50;;
16766;SDS011;8501;49.926;8.404;2023-08-01T14:59:48;4.18;;;2.20;;
16766;SDS011;8501;49.926;8.404;2023-08-01T15:02:14;3.92;;;2.30;;
16766;SDS011;8501;49.926;8.404;2023-08-01T15:04:41;4.05;;;2.03;;
16766;SDS011;8501;49.926;8.404;2023-08-01T15:07:06;3.00;;;1.70;;